createdAt,value
2022-10-22T00:00:43.665Z,11.49
2022-10-22T00:03:11.242Z,11.50
2022-10-22T00:05:38.637Z,11.48
2022-10-22T00:08:06.938Z,11.51
2022-10-22T00:10:34.333Z,11.50
2022-10-22T00:13:01.652Z,11.47
2022-10-22T00:15:28.972Z,11.54
2022-10-22T00:17:56.365Z,11.50
2022-10-22T00:20:23.740Z,11.52
2022-10-22T00:25:19.305Z,11.57
2022-10-22T00:27:46.662Z,11.55
2022-10-22T00:30:14.090Z,11.53
2022-10-22T00:32:42.021Z,11.52
2022-10-22T00:35:09.917Z,11.51
2022-10-22T00:37:37.458Z,11.51
2022-10-22T00:40:05.939Z,11.48
2022-10-22T00:42:33.536Z,11.48
2022-10-22T00:45:09.405Z,11.48
2022-10-22T00:47:59.201Z,11.48
2022-10-22T00:50:41.617Z,11.38
2022-10-22T00:53:12.632Z,11.44
2022-10-22T00:55:41.513Z,11.42
2022-10-22T00:58:09.548Z,11.34
2022-10-22T01:00:37.135Z,11.37
2022-10-22T01:03:05.171Z,11.43
2022-10-22T01:05:39.774Z,11.38
2022-10-22T01:08:13.149Z,11.34
2022-10-22T01:10:50.351Z,11.39
2022-10-22T01:13:36.641Z,11.35
2022-10-22T01:16:33.410Z,11.32
2022-10-22T01:19:28.362Z,11.34
2022-10-22T01:22:06.340Z,11.42
2022-10-22T01:24:53.256Z,11.43
2022-10-22T01:27:38.191Z,11.39
2022-10-22T01:30:08.088Z,11.47
2022-10-22T01:32:46.506Z,11.49
2022-10-22T01:35:19.130Z,11.45
2022-10-22T01:37:54.353Z,11.46
2022-10-22T01:40:23.928Z,11.47
2022-10-22T01:43:03.860Z,11.47
2022-10-22T01:45:36.029Z,11.51
2022-10-22T01:48:19.135Z,11.56
2022-10-22T01:50:58.565Z,11.54
2022-10-22T01:53:37.487Z,11.57
2022-10-22T01:56:11.085Z,11.54
2022-10-22T01:58:42.118Z,11.54
2022-10-22T02:01:32.753Z,11.60
2022-10-22T02:04:16.866Z,11.59
2022-10-22T02:06:47.798Z,11.60
2022-10-22T02:09:18.434Z,11.62
2022-10-22T02:11:47.088Z,11.63
2022-10-22T02:14:18.385Z,11.62
2022-10-22T02:16:48.705Z,11.67
2022-10-22T02:19:19.144Z,11.65
2022-10-22T02:21:46.697Z,11.65
2022-10-22T02:24:14.227Z,11.70
2022-10-22T02:26:54.301Z,11.63
2022-10-22T02:29:39.181Z,11.64
2022-10-22T02:32:09.997Z,11.61
2022-10-22T02:34:37.527Z,11.66
2022-10-22T02:37:06.315Z,11.62
2022-10-22T02:39:35.944Z,11.63
2022-10-22T02:42:03.823Z,11.63
2022-10-22T02:44:31.475Z,11.64
2022-10-22T02:46:59.621Z,11.60
2022-10-22T02:49:27.058Z,11.58
2022-10-22T02:51:54.326Z,11.58
2022-10-22T02:54:21.840Z,11.59
2022-10-22T02:56:49.213Z,11.56
2022-10-22T02:59:16.570Z,11.57
2022-10-22T03:01:43.885Z,11.57
2022-10-22T03:04:11.348Z,11.56
2022-10-22T03:06:38.685Z,11.56
2022-10-22T03:09:06.008Z,11.57
2022-10-22T03:11:33.392Z,11.58
2022-10-22T03:14:00.841Z,11.60
2022-10-22T03:16:28.155Z,11.60
2022-10-22T03:18:55.819Z,11.59
2022-10-22T03:21:29.742Z,11.64
2022-10-22T03:23:58.160Z,11.67
2022-10-22T03:26:26.137Z,11.64
2022-10-22T03:28:54.912Z,11.78
2022-10-22T03:31:22.317Z,11.78
2022-10-22T03:33:49.626Z,11.73
2022-10-22T03:36:16.942Z,11.69
2022-10-22T03:38:44.436Z,11.64
2022-10-22T03:41:11.966Z,11.64
2022-10-22T03:43:40.976Z,11.62
2022-10-22T03:46:08.609Z,11.63
2022-10-22T03:48:35.911Z,11.63
2022-10-22T03:51:03.325Z,11.61
2022-10-22T03:53:30.699Z,11.64
2022-10-22T03:55:57.994Z,11.62
2022-10-22T03:58:25.591Z,11.66
2022-10-22T04:00:52.958Z,11.68
2022-10-22T04:03:20.686Z,11.67
2022-10-22T04:05:47.978Z,11.64
2022-10-22T04:08:15.490Z,11.65
2022-10-22T04:10:42.770Z,11.66
2022-10-22T04:13:10.132Z,11.66
2022-10-22T04:15:37.482Z,11.67
2022-10-22T04:18:04.829Z,11.65
2022-10-22T04:20:32.163Z,11.67
2022-10-22T04:22:59.507Z,11.64
2022-10-22T04:25:26.846Z,11.66
2022-10-22T04:27:54.166Z,11.63
2022-10-22T04:30:21.474Z,11.58
2022-10-22T04:32:48.869Z,11.62
2022-10-22T04:35:16.363Z,11.62
2022-10-22T04:37:43.713Z,11.62
2022-10-22T04:40:11.794Z,11.63
2022-10-22T04:42:39.243Z,11.61
2022-10-22T04:45:06.942Z,11.62
2022-10-22T04:47:34.253Z,11.64
2022-10-22T04:50:01.561Z,11.67
2022-10-22T04:52:31.798Z,11.64
2022-10-22T04:54:59.121Z,11.65
2022-10-22T04:57:31.146Z,11.59
2022-10-22T04:59:58.697Z,11.58
2022-10-22T05:02:26.177Z,11.63
2022-10-22T05:04:53.680Z,11.57
2022-10-22T05:07:21.096Z,11.54
2022-10-22T05:09:48.450Z,11.54
2022-10-22T05:12:15.736Z,11.57
2022-10-22T05:14:44.769Z,11.33
2022-10-22T05:17:12.545Z,11.57
2022-10-22T05:19:39.832Z,11.59
2022-10-22T05:22:07.103Z,11.68
2022-10-22T05:24:37.119Z,11.65
2022-10-22T05:27:04.496Z,11.62
2022-10-22T05:29:31.895Z,11.66
2022-10-22T05:31:59.329Z,11.64
2022-10-22T05:34:26.605Z,11.63
2022-10-22T05:36:54.134Z,11.61
2022-10-22T05:39:21.704Z,11.59
2022-10-22T05:41:49.116Z,11.63
2022-10-22T05:44:16.484Z,11.66
2022-10-22T05:46:43.880Z,11.61
2022-10-22T05:49:15.545Z,11.59
2022-10-22T05:51:43.029Z,11.62
2022-10-22T05:54:19.422Z,11.66
2022-10-22T05:56:46.957Z,11.66
2022-10-22T05:59:14.373Z,11.68
2022-10-22T06:01:42.254Z,11.65
2022-10-22T06:04:12.995Z,11.68
2022-10-22T06:06:54.326Z,11.69
2022-10-22T06:09:40.167Z,11.69
2022-10-22T06:12:10.789Z,11.74
2022-10-22T06:14:38.160Z,11.69
2022-10-22T06:17:05.455Z,11.73
2022-10-22T06:19:32.773Z,11.76
2022-10-22T06:22:00.151Z,11.76
2022-10-22T06:24:27.505Z,11.71
2022-10-22T06:26:54.839Z,11.74
2022-10-22T06:29:22.279Z,11.72
2022-10-22T06:31:50.835Z,11.78
2022-10-22T06:34:21.403Z,11.79
2022-10-22T06:36:48.744Z,11.80
2022-10-22T06:39:18.254Z,11.78
2022-10-22T06:41:45.837Z,11.81
2022-10-22T06:44:18.849Z,11.76
2022-10-22T06:46:49.089Z,11.75
2022-10-22T06:49:17.150Z,11.75
2022-10-22T06:51:44.741Z,11.77
2022-10-22T06:54:12.616Z,11.77
2022-10-22T06:56:39.925Z,11.74
2022-10-22T06:59:07.273Z,11.76
2022-10-22T07:01:36.306Z,11.77
2022-10-22T07:04:04.170Z,11.73
2022-10-22T07:06:32.006Z,11.75
2022-10-22T07:09:00.733Z,11.81
2022-10-22T07:11:32.805Z,11.81
2022-10-22T07:14:00.974Z,11.77
2022-10-22T07:16:31.245Z,11.79
2022-10-22T07:19:00.686Z,11.75
2022-10-22T07:21:28.126Z,11.77
2022-10-22T07:23:56.556Z,11.80
2022-10-22T07:26:30.618Z,11.87
2022-10-22T07:28:58.894Z,11.87
2022-10-22T07:31:26.426Z,11.86
2022-10-22T07:33:53.746Z,11.92
2022-10-22T07:36:21.174Z,11.74
2022-10-22T07:38:53.599Z,11.65
2022-10-22T07:41:21.279Z,11.57
2022-10-22T07:43:48.555Z,11.50
2022-10-22T07:46:15.877Z,11.44
2022-10-22T07:48:43.375Z,11.45
2022-10-22T07:51:10.763Z,11.47
2022-10-22T07:53:38.404Z,11.51
2022-10-22T07:56:06.545Z,11.50
2022-10-22T07:58:34.456Z,11.42
2022-10-22T08:01:05.684Z,11.48
2022-10-22T08:03:33.697Z,11.47
2022-10-22T08:06:01.703Z,11.42
2022-10-22T08:08:30.834Z,11.43
2022-10-22T08:11:01.028Z,11.42
2022-10-22T08:13:30.631Z,11.43
2022-10-22T08:16:00.455Z,11.40
2022-10-22T08:18:28.680Z,11.40
2022-10-22T08:20:56.722Z,11.42
2022-10-22T08:23:26.124Z,11.47
2022-10-22T08:25:56.606Z,11.57
2022-10-22T08:28:23.968Z,11.62
2022-10-22T08:30:51.676Z,11.64
2022-10-22T08:33:19.330Z,11.71
2022-10-22T08:35:51.219Z,11.77
2022-10-22T08:38:19.819Z,11.90
2022-10-22T08:41:00.736Z,11.87
2022-10-22T08:43:45.960Z,11.87
2022-10-22T08:46:32.241Z,11.96
2022-10-22T08:49:02.816Z,12.03
2022-10-22T08:51:36.931Z,12.15
2022-10-22T08:54:36.464Z,12.27
2022-10-22T08:57:22.192Z,12.38
2022-10-22T08:59:52.354Z,12.46
2022-10-22T09:02:40.985Z,12.53
2022-10-22T09:05:12.405Z,12.60
2022-10-22T09:07:43.766Z,12.64
2022-10-22T09:10:13.495Z,12.69
2022-10-22T09:12:41.255Z,12.73
2022-10-22T09:15:14.961Z,12.81
2022-10-22T09:18:21.895Z,12.87
2022-10-22T09:20:59.474Z,12.87
2022-10-22T09:23:39.371Z,12.79
2022-10-22T09:26:15.727Z,12.85
2022-10-22T09:28:43.690Z,12.83
2022-10-22T09:31:13.237Z,12.99
2022-10-22T09:33:42.622Z,13.15
2022-10-22T09:36:16.708Z,13.29
2022-10-22T09:38:53.333Z,13.47
2022-10-22T09:41:24.087Z,13.58
2022-10-22T09:43:51.649Z,13.67
2022-10-22T09:46:22.215Z,13.92
2022-10-22T09:48:58.683Z,14.19
2022-10-22T09:51:36.443Z,14.50
2022-10-22T09:54:16.715Z,14.71
2022-10-22T09:56:57.003Z,15.39
2022-10-22T09:59:32.691Z,15.33
2022-10-22T10:02:19.983Z,15.21
2022-10-22T10:05:03.779Z,15.36
2022-10-22T10:07:33.874Z,16.10
2022-10-22T10:10:01.800Z,16.17
2022-10-22T10:12:49.778Z,15.98
2022-10-22T10:15:23.373Z,16.27
2022-10-22T10:18:11.549Z,17.10
2022-10-22T10:21:08.678Z,18.42
2022-10-22T10:24:14.374Z,19.29
2022-10-22T10:27:12.453Z,19.89
2022-10-22T10:30:09.729Z,20.83
2022-10-22T10:32:43.507Z,20.41
2022-10-22T10:35:55.459Z,20.56
2022-10-22T10:38:53.297Z,21.74
2022-10-22T10:41:56.180Z,22.98
2022-10-22T10:44:35.386Z,23.90
2022-10-22T10:47:21.523Z,24.53
2022-10-22T10:49:51.943Z,24.16
2022-10-22T10:52:36.540Z,23.52
2022-10-22T10:55:22.497Z,23.18
2022-10-22T10:58:11.090Z,23.06
2022-10-22T11:00:57.672Z,24.05
2022-10-22T11:03:46.162Z,24.49
2022-10-22T11:06:23.008Z,25.96
2022-10-22T11:09:31.287Z,26.67
2022-10-22T11:12:04.229Z,25.47
2022-10-22T11:15:16.366Z,23.71
2022-10-22T11:17:48.111Z,22.35
2022-10-22T11:20:43.706Z,21.03
2022-10-22T11:23:55.349Z,20.41
2022-10-22T11:26:38.953Z,19.42
2022-10-22T11:29:17.496Z,19.42
2022-10-22T11:31:46.091Z,18.14
2022-10-22T11:34:33.093Z,17.74
2022-10-22T11:37:04.195Z,17.37
2022-10-22T11:39:40.970Z,17.21
2022-10-22T11:42:18.169Z,17.07
2022-10-22T11:44:59.713Z,16.85
2022-10-22T11:47:31.862Z,16.80
2022-10-22T11:50:47.148Z,16.73
2022-10-22T11:53:14.484Z,16.76
2022-10-22T11:55:55.412Z,16.74
2022-10-22T11:58:39.213Z,16.74
2022-10-22T12:01:09.418Z,16.80
2022-10-22T12:03:48.854Z,16.77
2022-10-22T12:06:20.739Z,16.67
2022-10-22T12:08:54.378Z,16.56
2022-10-22T12:11:44.872Z,16.40
2022-10-22T12:14:29.574Z,16.41
2022-10-22T12:17:02.692Z,16.47
2022-10-22T12:19:44.530Z,16.60
2022-10-22T12:22:27.500Z,16.94
2022-10-22T12:25:01.001Z,16.99
2022-10-22T12:27:37.316Z,17.01
2022-10-22T12:30:21.231Z,17.09
2022-10-22T12:32:51.192Z,17.18
2022-10-22T12:35:21.808Z,17.08
2022-10-22T12:37:57.154Z,17.00
2022-10-22T12:40:30.112Z,16.93
2022-10-22T12:43:02.999Z,17.05
2022-10-22T12:45:34.156Z,17.18
2022-10-22T12:48:04.398Z,17.30
2022-10-22T12:50:38.174Z,17.37
2022-10-22T12:53:24.627Z,17.35
2022-10-22T12:55:54.758Z,17.44
2022-10-22T12:58:27.025Z,17.51
2022-10-22T13:01:02.172Z,17.49
2022-10-22T13:03:38.733Z,17.50
2022-10-22T13:06:23.828Z,17.50
2022-10-22T13:09:00.478Z,17.61
2022-10-22T13:11:39.799Z,17.61
2022-10-22T13:14:21.371Z,17.68
2022-10-22T13:17:07.375Z,17.69
2022-10-22T13:19:45.755Z,17.79
2022-10-22T13:22:35.474Z,17.76
2022-10-22T13:25:20.648Z,17.69
2022-10-22T13:27:49.158Z,17.70
2022-10-22T13:30:27.937Z,17.73
2022-10-22T13:32:59.481Z,17.74
2022-10-22T13:35:30.178Z,17.78
2022-10-22T13:37:57.607Z,17.86
2022-10-22T13:40:25.058Z,17.91
2022-10-22T13:42:52.388Z,17.99
2022-10-22T13:45:20.031Z,17.99
2022-10-22T13:47:53.921Z,18.08
2022-10-22T13:50:21.913Z,18.13
2022-10-22T13:52:56.338Z,18.10
2022-10-22T13:55:29.233Z,18.21
2022-10-22T13:58:13.087Z,18.32
2022-10-22T14:00:43.268Z,18.44
2022-10-22T14:03:17.104Z,18.56
2022-10-22T14:05:46.832Z,18.81
2022-10-22T14:08:17.215Z,18.76
2022-10-22T14:10:45.019Z,18.57
2022-10-22T14:13:13.989Z,18.52
2022-10-22T14:15:42.911Z,18.53
2022-10-22T14:18:15.815Z,18.48
2022-10-22T14:20:43.651Z,18.32
2022-10-22T14:23:18.999Z,18.30
2022-10-22T14:25:46.593Z,18.30
2022-10-22T14:28:14.323Z,18.26
2022-10-22T14:30:42.026Z,18.28
2022-10-22T14:33:20.520Z,18.35
2022-10-22T14:35:51.220Z,18.41
2022-10-22T14:38:18.751Z,18.44
2022-10-22T14:40:46.862Z,18.48
2022-10-22T14:43:18.667Z,18.55
2022-10-22T14:45:46.028Z,18.56
2022-10-22T14:48:13.723Z,18.57
2022-10-22T14:50:41.033Z,18.52
2022-10-22T14:53:08.498Z,18.53
2022-10-22T14:55:35.906Z,18.03
2022-10-22T14:58:03.408Z,18.41
2022-10-22T15:00:30.827Z,18.33
2022-10-22T15:03:03.317Z,18.33
2022-10-22T15:05:31.745Z,18.31
2022-10-22T15:07:59.399Z,18.29
2022-10-22T15:10:27.357Z,18.26
2022-10-22T15:12:54.830Z,18.22
2022-10-22T15:15:23.214Z,18.15
2022-10-22T15:17:51.417Z,18.14
2022-10-22T15:20:18.797Z,18.11
2022-10-22T15:22:46.098Z,18.00
2022-10-22T15:25:14.069Z,17.96
2022-10-22T15:27:41.578Z,17.93
2022-10-22T15:30:09.401Z,17.84
2022-10-22T15:32:36.851Z,17.79
2022-10-22T15:35:06.062Z,17.75
2022-10-22T15:37:33.567Z,17.67
2022-10-22T15:40:01.022Z,17.57
2022-10-22T15:42:28.349Z,17.51
2022-10-22T15:44:59.724Z,17.47
2022-10-22T15:47:29.586Z,17.41
2022-10-22T15:49:57.214Z,17.37
2022-10-22T15:52:24.622Z,17.25
2022-10-22T15:54:52.280Z,17.12
2022-10-22T15:57:19.662Z,16.96
2022-10-22T15:59:47.239Z,16.89
2022-10-22T16:02:16.163Z,16.69
2022-10-22T16:04:43.608Z,16.57
2022-10-22T16:07:11.342Z,16.45
2022-10-22T16:09:38.761Z,16.31
2022-10-22T16:12:06.466Z,16.18
2022-10-22T16:14:33.920Z,16.06
2022-10-22T16:17:01.738Z,15.95
2022-10-22T16:19:29.457Z,15.83
2022-10-22T16:21:57.210Z,15.74
2022-10-22T16:24:24.586Z,15.67
2022-10-22T16:26:53.223Z,15.56
2022-10-22T16:29:20.645Z,15.48
2022-10-22T16:31:47.995Z,15.38
2022-10-22T16:34:15.376Z,15.26
2022-10-22T16:36:44.210Z,15.24
2022-10-22T16:39:11.897Z,15.10
2022-10-22T16:41:39.370Z,15.01
2022-10-22T16:44:08.668Z,14.93
2022-10-22T16:46:39.475Z,14.90
2022-10-22T16:49:07.793Z,14.77
2022-10-22T16:51:36.221Z,14.73
2022-10-22T16:54:06.796Z,14.69
2022-10-22T16:56:37.611Z,14.61
2022-10-22T16:59:04.942Z,14.57
2022-10-22T17:01:35.679Z,14.51
2022-10-22T17:04:05.486Z,14.42
2022-10-22T17:06:32.991Z,14.36
2022-10-22T17:09:00.616Z,14.35
2022-10-22T17:11:30.292Z,14.29
2022-10-22T17:13:57.778Z,14.26
2022-10-22T17:16:25.506Z,14.25
2022-10-22T17:18:54.871Z,14.23
2022-10-22T17:21:23.565Z,14.18
2022-10-22T17:23:57.979Z,14.09
2022-10-22T17:26:26.978Z,14.10
2022-10-22T17:28:55.123Z,14.01
2022-10-22T17:31:25.222Z,13.99
2022-10-22T17:33:55.140Z,13.96
2022-10-22T17:36:24.364Z,13.91
2022-10-22T17:38:54.804Z,13.84
2022-10-22T17:41:30.835Z,13.79
2022-10-22T17:44:01.257Z,13.72
2022-10-22T17:46:30.298Z,13.67
2022-10-22T17:49:00.552Z,13.61
2022-10-22T17:51:29.665Z,13.58
2022-10-22T17:53:57.270Z,13.57
2022-10-22T17:56:27.732Z,13.53
2022-10-22T17:58:55.969Z,13.48
2022-10-22T18:01:27.900Z,13.44
2022-10-22T18:03:59.747Z,13.43
2022-10-22T18:06:28.044Z,13.36
2022-10-22T18:08:55.622Z,13.30
2022-10-22T18:11:25.452Z,13.24
2022-10-22T18:13:57.575Z,13.22
2022-10-22T18:16:26.026Z,13.11
2022-10-22T18:18:55.518Z,13.11
2022-10-22T18:21:24.778Z,13.09
2022-10-22T18:23:52.689Z,13.07
2022-10-22T18:26:24.270Z,13.00
2022-10-22T18:28:54.819Z,12.92
2022-10-22T18:31:24.079Z,12.90
2022-10-22T18:33:51.986Z,12.87
2022-10-22T18:36:22.048Z,12.84
2022-10-22T18:39:00.793Z,12.80
2022-10-22T18:41:29.712Z,12.75
2022-10-22T18:43:59.373Z,12.73
2022-10-22T18:46:27.838Z,12.73
2022-10-22T18:48:58.855Z,12.74
2022-10-22T18:51:30.100Z,12.72
2022-10-22T18:54:05.131Z,12.67
2022-10-22T18:56:40.664Z,12.65
2022-10-22T18:59:13.375Z,12.65
2022-10-22T19:01:40.742Z,12.63
2022-10-22T19:04:08.032Z,12.17
2022-10-22T19:06:37.123Z,12.51
2022-10-22T19:09:05.430Z,12.48
2022-10-22T19:11:33.144Z,12.48
2022-10-22T19:14:00.437Z,12.07
2022-10-22T19:16:28.655Z,12.43
2022-10-22T19:19:04.958Z,12.38
2022-10-22T19:21:33.369Z,12.36
2022-10-22T19:24:01.405Z,12.33
2022-10-22T19:26:30.220Z,12.35
2022-10-22T19:28:58.771Z,12.32
2022-10-22T19:31:27.851Z,12.34
2022-10-22T19:33:55.721Z,12.29
2022-10-22T19:36:25.253Z,12.26
2022-10-22T19:38:53.345Z,12.23
2022-10-22T19:45:41.274Z,12.20
2022-10-22T19:48:08.616Z,12.25
2022-10-22T19:50:36.060Z,12.26
2022-10-22T19:53:03.530Z,12.28
2022-10-22T19:55:30.993Z,12.29
2022-10-22T19:57:58.350Z,12.32
2022-10-22T20:00:25.806Z,12.30
2022-10-22T20:02:53.235Z,12.39
2022-10-22T20:05:20.699Z,12.42
2022-10-22T20:07:48.116Z,12.47
2022-10-22T20:10:15.690Z,12.58
2022-10-22T20:12:43.101Z,12.58
2022-10-22T20:15:10.631Z,12.59
2022-10-22T20:17:38.180Z,12.58
2022-10-22T20:20:06.038Z,12.59
2022-10-22T20:22:33.587Z,12.65
2022-10-22T20:25:01.050Z,12.65
2022-10-22T20:27:28.430Z,12.69
2022-10-22T20:29:56.266Z,12.67
2022-10-22T20:32:27.047Z,12.68
2022-10-22T20:34:54.594Z,12.69
2022-10-22T20:37:21.954Z,12.70
2022-10-22T20:39:52.370Z,12.71
2022-10-22T20:42:19.739Z,12.70
2022-10-22T20:44:47.192Z,12.68
2022-10-22T20:47:14.598Z,12.67
2022-10-22T20:49:41.991Z,12.64
2022-10-22T20:52:09.548Z,12.54
2022-10-22T20:54:41.383Z,12.48
2022-10-22T20:57:09.222Z,12.46
2022-10-22T20:59:36.989Z,12.46
2022-10-22T21:02:05.570Z,12.42
2022-10-22T21:04:33.637Z,12.37
2022-10-22T21:07:01.208Z,12.32
2022-10-22T21:09:28.612Z,12.30
2022-10-22T21:11:56.922Z,12.29
2022-10-22T21:14:24.295Z,12.22
2022-10-22T21:16:52.229Z,12.17
2022-10-22T21:19:20.314Z,12.11
2022-10-22T21:21:47.612Z,12.07
2022-10-22T21:24:15.416Z,12.06
2022-10-22T21:26:43.990Z,12.00
2022-10-22T21:29:13.288Z,11.94
2022-10-22T21:31:40.982Z,11.91
2022-10-22T21:34:08.505Z,11.84
2022-10-22T21:36:35.914Z,11.81
2022-10-22T21:39:03.553Z,11.75
2022-10-22T21:41:31.341Z,11.70
2022-10-22T21:43:59.423Z,11.68
2022-10-22T21:46:28.242Z,11.67
2022-10-22T21:48:58.073Z,11.58
2022-10-22T21:51:25.936Z,11.58
2022-10-22T21:53:53.781Z,11.51
2022-10-22T21:56:24.294Z,11.51
2022-10-22T21:58:52.171Z,11.50
2022-10-22T22:01:19.880Z,11.50
2022-10-22T22:03:49.386Z,11.12
2022-10-22T22:06:21.241Z,11.45
2022-10-22T22:08:51.049Z,11.46
2022-10-22T22:11:21.440Z,11.41
2022-10-22T22:13:49.397Z,11.40
2022-10-22T22:16:22.475Z,11.34
2022-10-22T22:18:53.052Z,11.29
2022-10-22T22:21:22.224Z,11.21
2022-10-22T22:23:50.851Z,11.18
2022-10-22T22:26:25.426Z,11.19
2022-10-22T22:28:56.966Z,11.15
2022-10-22T22:31:28.409Z,11.16
2022-10-22T22:33:59.722Z,11.12
2022-10-22T22:36:27.109Z,10.72
2022-10-22T22:38:56.010Z,11.12
2022-10-22T22:41:23.561Z,11.04
2022-10-22T22:43:51.020Z,10.99
2022-10-22T22:46:18.416Z,11.01
2022-10-22T22:48:49.363Z,10.97
2022-10-22T22:51:16.961Z,10.95
2022-10-22T22:53:44.387Z,10.81
2022-10-22T22:56:23.703Z,10.81
2022-10-22T22:58:51.609Z,10.78
2022-10-22T23:01:22.987Z,10.78
2022-10-22T23:03:57.414Z,10.82
2022-10-22T23:06:27.168Z,10.79
2022-10-22T23:08:55.441Z,10.73
2022-10-22T23:11:24.554Z,10.57
2022-10-22T23:13:54.589Z,10.55
2022-10-22T23:16:25.064Z,10.53
2022-10-22T23:18:54.477Z,10.55
2022-10-22T23:21:29.785Z,10.52
2022-10-22T23:24:00.681Z,10.53
2022-10-22T23:26:35.214Z,10.46
2022-10-22T23:29:13.773Z,10.45
2022-10-22T23:31:42.674Z,10.47
2022-10-22T23:34:13.651Z,10.44
2022-10-22T23:36:41.063Z,10.44
2022-10-22T23:39:14.267Z,10.40
2022-10-22T23:41:41.875Z,10.35
2022-10-22T23:44:10.173Z,10.43
2022-10-22T23:46:41.173Z,10.43
2022-10-22T23:49:10.403Z,10.42
2022-10-22T23:51:38.922Z,10.38
2022-10-22T23:54:11.178Z,10.35
2022-10-22T23:56:38.687Z,10.35
2022-10-22T23:59:06.176Z,10.33
